GR-0012 weather

Larisa
Larissa, Greece

Public forecast

Using degrees Celsius for public forecast. Weather courtesy of forecast.io.

METAR (pilot weather report)

Report is more than 6 hours old.

Closest report is Larisa Airport, 5.8 nm (10.8 km) E. Retrieved 2018/09/20 13:50 UTC (3 days ago):

LGLR 201350Z 09009KT 9999 FEW030 28/10 Q1017 RMK FEW180 BLU

TAF (pilot weather forecast)

Closest forecast is Thessaloniki Macedonia International Airport, 59.4 nm (110.0 km) NNE. Retrieved 2018/09/23 06:38 UTC (5 hours ago):

TAF LGTS 230500Z 2306/2406 35007KT 9999 FEW030 BECMG 2312/2314 18010KT BECMG 2318/2320 VRB03KT